Time;durP1;ratioP1;P1;durP2;ratioP2;P2;SDS_P1;SDS_P2;PMS_P1;PMS_P2;Temp;Humidity;BMP_temperature;BMP_pressure;BME280_temperature;BME280_humidity;BME280_pressure;Samples;Min_cycle;Max_cycle;Signal;HPM_P1;HPM_P2
2022/03/21 12:32:00;;;;;;;15.52;12.25;;;;;;;;;;6181994;22;21667;31
2022/03/21 12:34:36;;;;;;;13.05;11.10;;;;;;;;;;6216415;23;20021;-86
2022/03/21 12:37:25;;;;;;;16.52;12.55;;;;;;;;;;6216315;23;20016;-85
2022/03/21 12:39:53;;;;;;;14.18;12.55;;;;;;;;;;6214623;23;20087;-88
2022/03/21 12:42:21;;;;;;;16.77;12.88;;;;;;;;;;6214410;23;20013;-86
2022/03/21 12:44:46;;;;;;;19.08;13.70;;;;;;;;;;6215007;23;20036;-85
2022/03/21 12:47:12;;;;;;;16.25;12.90;;;;;;;;;;6216010;23;20423;-89
2022/03/21 17:27:49;;;;;;;17.70;13.00;;;;;;;;;;6201489;23;20008;-95
2022/03/21 17:30:25;;;;;;;16.77;12.60;;;;;;;;;;6235863;23;20017;-93
2022/03/21 17:32:50;;;;;;;16.00;12.27;;;;;;;;;;6176743;23;20009;-89
2022/03/21 17:35:16;;;;;;;19.17;13.65;;;;;;;;;;6164467;23;20005;-92
2022/03/21 17:37:42;;;;;;;19.23;13.07;;;;;;;;;;6162749;23;20005;-95
2022/03/21 17:40:08;;;;;;;16.17;12.95;;;;;;;;;;6162585;23;20005;-95
2022/03/21 17:42:35;;;;;;;18.60;13.27;;;;;;;;;;6162784;23;20011;-96
2022/03/21 17:45:00;;;;;;;19.15;12.93;;;;;;;;;;6163122;23;20103;-95
2022/03/21 17:47:28;;;;;;;19.60;13.55;;;;;;;;;;6162595;23;20005;-95
2022/03/21 17:49:54;;;;;;;16.70;12.38;;;;;;;;;;6162471;23;20020;-93
2022/03/21 17:52:20;;;;;;;17.67;12.57;;;;;;;;;;6162318;23;20009;-92
2022/03/21 17:54:46;;;;;;;16.95;12.93;;;;;;;;;;6162119;23;20016;-95
2022/03/21 17:57:12;;;;;;;18.17;12.30;;;;;;;;;;6162498;23;20084;-93
2022/03/21 17:59:40;;;;;;;15.30;11.55;;;;;;;;;;6162467;23;20084;-94
2022/03/21 18:02:06;;;;;;;22.02;15.27;;;;;;;;;;6162383;23;20001;-96
2022/03/21 18:04:31;;;;;;;18.48;13.40;;;;;;;;;;6163454;23;20007;-96
2022/03/21 18:06:58;;;;;;;16.98;11.77;;;;;;;;;;6166855;23;20032;-96
2022/03/21 18:09:24;;;;;;;17.58;12.80;;;;;;;;;;6172947;23;20012;-94
2022/03/21 18:11:54;;;;;;;16.98;12.32;;;;;;;;;;6169818;23;20008;-96
2022/03/21 18:14:22;;;;;;;16.83;11.95;;;;;;;;;;6167727;23;20009;-95
2022/03/21 18:16:48;;;;;;;16.70;11.95;;;;;;;;;;6164131;23;20001;-94
2022/03/21 18:22:08;;;;;;;16.15;12.52;;;;;;;;;;6200993;23;20009;-93
2022/03/21 18:24:36;;;;;;;18.08;11.65;;;;;;;;;;6166294;23;20043;-96
2022/03/21 18:27:04;;;;;;;22.58;14.52;;;;;;;;;;6178931;23;20011;-91
2022/03/21 18:29:29;;;;;;;24.73;17.33;;;;;;;;;;6175134;23;20005;-95
2022/03/21 18:31:54;;;;;;;21.25;14.35;;;;;;;;;;6164386;23;20120;-92
2022/03/21 18:34:21;;;;;;;22.25;15.73;;;;;;;;;;6167501;23;20055;-95
2022/03/21 18:36:49;;;;;;;20.98;14.57;;;;;;;;;;6140797;23;20063;-95
2022/03/21 18:39:14;;;;;;;18.67;14.10;;;;;;;;;;6163491;23;20017;-94
2022/03/21 18:41:40;;;;;;;18.27;12.98;;;;;;;;;;6162179;23;20060;-93
2022/03/21 18:44:06;;;;;;;18.65;13.15;;;;;;;;;;6162726;23;20016;-95
2022/03/21 18:46:32;;;;;;;16.88;12.63;;;;;;;;;;6167470;23;20002;-95
2022/03/21 18:48:58;;;;;;;20.20;13.95;;;;;;;;;;6165944;23;20009;-96
2022/03/21 18:51:24;;;;;;;16.77;12.27;;;;;;;;;;6167171;23;20040;-94
2022/03/21 18:53:51;;;;;;;16.48;12.10;;;;;;;;;;6169071;23;20005;-96
2022/03/21 18:56:18;;;;;;;17.08;13.32;;;;;;;;;;6171956;23;20068;-93
2022/03/21 18:58:43;;;;;;;19.60;13.85;;;;;;;;;;6176438;23;20044;-96
2022/03/21 19:01:09;;;;;;;16.75;12.35;;;;;;;;;;6168934;23;20005;-96
2022/03/21 19:03:38;;;;;;;18.38;13.57;;;;;;;;;;6174031;23;20009;-94
2022/03/21 19:06:24;;;;;;;;;;;;;;;;;;6206594;23;20005;-93
2022/03/21 19:08:49;;;;;;;25.35;13.55;;;;;;;;;;6178028;23;19908;-92
2022/03/21 19:11:15;;;;;;;23.80;15.57;;;;;;;;;;6175466;23;20309;-91
2022/03/21 19:13:41;;;;;;;26.33;17.45;;;;;;;;;;6171553;23;20009;-95
2022/03/21 19:16:08;;;;;;;26.35;17.85;;;;;;;;;;6165064;23;20013;-95
2022/03/21 19:18:39;;;;;;;25.42;16.98;;;;;;;;;;6174257;23;20492;-94
2022/03/21 19:21:08;;;;;;;25.60;17.92;;;;;;;;;;6198010;23;20076;-94
2022/03/21 19:23:33;;;;;;;22.35;15.32;;;;;;;;;;6167413;23;20092;-96
2022/03/21 19:25:59;;;;;;;18.42;13.98;;;;;;;;;;6173367;23;20044;-92
2022/03/21 19:28:24;;;;;;;19.45;13.68;;;;;;;;;;6171975;23;20001;-92
2022/03/21 19:30:50;;;;;;;20.00;14.77;;;;;;;;;;6164542;23;20455;-91
2022/03/21 19:33:47;;;;;;;24.95;15.60;;;;;;;;;;6139560;23;20331;-91
2022/03/21 20:25:10;;;;;;;18.83;13.23;;;;;;;;;;6190333;23;20016;-94
2022/03/21 20:27:41;;;;;;;18.45;13.15;;;;;;;;;;6194879;23;20009;-96
2022/03/21 20:30:07;;;;;;;18.65;12.77;;;;;;;;;;6201020;23;20012;-93
2022/03/21 20:32:39;;;;;;;21.13;14.45;;;;;;;;;;6205607;23;20120;-91
2022/03/21 20:35:05;;;;;;;20.50;14.48;;;;;;;;;;6199384;23;20005;-94
2022/03/21 20:37:31;;;;;;;21.58;14.35;;;;;;;;;;6197788;23;20051;-95
2022/03/21 20:39:56;;;;;;;22.33;13.88;;;;;;;;;;6194003;23;20005;-96
2022/03/21 20:42:22;;;;;;;20.05;14.20;;;;;;;;;;6192575;23;20529;-94
2022/03/21 20:44:47;;;;;;;21.55;15.10;;;;;;;;;;6192090;23;20016;-94
2022/03/21 20:47:17;;;;;;;19.25;14.18;;;;;;;;;;6192134;23;20005;-96
2022/03/21 20:49:42;;;;;;;;;;;;;;;;;;6191940;23;20004;-96
2022/03/21 20:52:08;;;;;;;58.78;30.20;;;;;;;;;;6190546;23;19966;-95
2022/03/21 20:54:34;;;;;;;27.83;18.13;;;;;;;;;;6191392;23;20130;-92
2022/03/21 20:57:00;;;;;;;17.88;13.25;;;;;;;;;;6218602;23;20015;-93
2022/03/21 20:59:25;;;;;;;22.50;13.40;;;;;;;;;;6193297;23;20009;-91
2022/03/21 21:01:50;;;;;;;21.67;15.10;;;;;;;;;;6190977;23;20009;-95
2022/03/21 21:04:16;;;;;;;21.98;14.48;;;;;;;;;;6191445;23;20000;-92
2022/03/21 21:06:41;;;;;;;19.75;14.88;;;;;;;;;;6192279;23;20008;-92
2022/03/21 21:09:07;;;;;;;25.38;15.25;;;;;;;;;;6191436;23;20001;-93
2022/03/21 21:11:32;;;;;;;23.95;15.60;;;;;;;;;;6190683;23;20004;-96
2022/03/21 21:13:58;;;;;;;25.27;14.93;;;;;;;;;;6191188;23;20009;-93
2022/03/21 21:16:24;;;;;;;20.35;14.05;;;;;;;;;;6190449;23;20009;-95
2022/03/21 21:18:50;;;;;;;21.20;14.38;;;;;;;;;;6190204;23;20026;-92
2022/03/21 21:21:15;;;;;;;17.98;12.77;;;;;;;;;;6190189;23;20008;-93
2022/03/21 21:23:41;;;;;;;16.83;12.65;;;;;;;;;;6190529;23;20004;-92
2022/03/21 21:26:08;;;;;;;23.33;14.95;;;;;;;;;;6190254;23;20106;-92
2022/03/21 21:28:34;;;;;;;27.92;17.08;;;;;;;;;;6190278;23;20025;-93
2022/03/21 21:31:00;;;;;;;19.77;13.90;;;;;;;;;;6190203;23;20008;-92
2022/03/21 21:33:27;;;;;;;21.58;15.68;;;;;;;;;;6190292;23;20009;-94
2022/03/21 21:35:53;;;;;;;25.25;17.48;;;;;;;;;;6190308;23;20085;-91
2022/03/21 21:38:23;;;;;;;19.45;13.95;;;;;;;;;;6190284;23;20064;-92
2022/03/21 21:40:50;;;;;;;21.58;13.63;;;;;;;;;;6190094;23;20029;-93
2022/03/21 21:43:16;;;;;;;19.95;14.10;;;;;;;;;;6190677;23;20012;-94
2022/03/21 21:45:42;;;;;;;20.92;14.25;;;;;;;;;;6190051;23;20478;-94
2022/03/21 21:48:08;;;;;;;22.17;15.15;;;;;;;;;;6190582;23;20032;-95
2022/03/21 21:50:34;;;;;;;22.42;15.13;;;;;;;;;;6190287;23;20004;-94
2022/03/21 21:53:03;;;;;;;21.20;14.95;;;;;;;;;;6190314;23;20423;-94
2022/03/21 21:55:30;;;;;;;19.88;13.25;;;;;;;;;;6191681;23;20343;-94
2022/03/21 21:57:55;;;;;;;19.65;12.80;;;;;;;;;;6192450;23;20005;-94
2022/03/21 22:00:22;;;;;;;22.98;14.95;;;;;;;;;;6192234;23;20009;-95
2022/03/21 22:02:49;;;;;;;27.75;18.08;;;;;;;;;;6192146;23;20079;-92
2022/03/21 22:05:19;;;;;;;28.20;19.35;;;;;;;;;;6192341;23;20008;-95
2022/03/21 22:07:45;;;;;;;28.48;18.65;;;;;;;;;;6191980;23;20415;-93
2022/03/21 22:10:11;;;;;;;30.77;19.63;;;;;;;;;;6191989;23;20442;-92
2022/03/21 22:12:37;;;;;;;21.38;15.35;;;;;;;;;;6191895;23;20005;-94
2022/03/21 22:15:03;;;;;;;23.00;14.73;;;;;;;;;;6192020;23;20005;-94
2022/03/21 22:17:28;;;;;;;21.98;15.88;;;;;;;;;;6192060;23;20026;-95
2022/03/21 22:19:56;;;;;;;19.67;13.73;;;;;;;;;;6192096;23;20011;-95
2022/03/21 22:22:22;;;;;;;25.70;16.50;;;;;;;;;;6192124;23;20027;-93
2022/03/21 22:24:49;;;;;;;19.63;14.05;;;;;;;;;;6192042;23;20478;-94
2022/03/21 22:27:14;;;;;;;22.95;14.57;;;;;;;;;;6191935;23;20004;-93
2022/03/21 22:29:41;;;;;;;22.20;14.02;;;;;;;;;;6191865;23;20088;-95
2022/03/21 22:32:07;;;;;;;19.60;13.98;;;;;;;;;;6192093;23;20014;-92
2022/03/21 22:34:33;;;;;;;22.55;14.82;;;;;;;;;;6192079;23;20079;-93
2022/03/21 22:36:58;;;;;;;24.33;15.27;;;;;;;;;;6192013;23;20054;-92
2022/03/21 22:39:24;;;;;;;22.35;15.27;;;;;;;;;;6191966;23;20076;-91
2022/03/21 22:47:10;;;;;;;24.25;17.17;;;;;;;;;;6228654;23;20474;-92
2022/03/21 22:49:39;;;;;;;21.80;14.15;;;;;;;;;;6191878;23;20005;-94
2022/03/21 22:52:05;;;;;;;25.52;15.95;;;;;;;;;;6191700;23;19997;-92
2022/03/21 22:54:31;;;;;;;19.17;14.02;;;;;;;;;;6191575;23;20076;-92
2022/03/21 22:56:56;;;;;;;26.80;15.05;;;;;;;;;;6191591;23;20009;-93
2022/03/21 22:59:22;;;;;;;25.83;15.88;;;;;;;;;;6191793;23;20004;-93
2022/03/21 23:01:51;;;;;;;26.40;17.10;;;;;;;;;;6190902;23;20066;-92
2022/03/21 23:04:17;;;;;;;29.55;16.83;;;;;;;;;;6191895;23;20032;-95
2022/03/21 23:06:43;;;;;;;22.58;15.32;;;;;;;;;;6191356;23;20008;-92
2022/03/21 23:09:10;;;;;;;25.25;16.23;;;;;;;;;;6191605;23;20094;-93
2022/03/21 23:11:37;;;;;;;22.40;14.27;;;;;;;;;;6191597;23;20009;-93
2022/03/21 23:14:06;;;;;;;20.08;14.15;;;;;;;;;;6191710;23;20005;-94
2022/03/21 23:16:32;;;;;;;25.45;17.80;;;;;;;;;;6191690;23;20013;-93
2022/03/21 23:18:57;;;;;;;27.08;17.40;;;;;;;;;;6191645;23;20007;-92
2022/03/21 23:21:23;;;;;;;23.63;16.15;;;;;;;;;;6191393;23;20001;-92
2022/03/21 23:23:49;;;;;;;24.80;17.50;;;;;;;;;;6197087;23;20019;-92
2022/03/21 23:26:14;;;;;;;37.17;17.70;;;;;;;;;;6191199;23;20031;-93
